sensor_id;sensor_type;location;lat;lon;timestamp;P1;durP1;ratioP1;P2;durP2;ratioP2
55672;SDS011;41554;45.366;20.400;2023-06-10T00:02:21;7.13;;;5.13;;
55672;SDS011;41554;45.366;20.400;2023-06-10T00:04:47;5.78;;;4.38;;
55672;SDS011;41554;45.366;20.400;2023-06-10T00:07:13;7.82;;;5.20;;
55672;SDS011;41554;45.366;20.400;2023-06-10T00:09:39;6.28;;;4.57;;
55672;SDS011;41554;45.366;20.400;2023-06-10T00:12:06;6.45;;;4.05;;
55672;SDS011;41554;45.366;20.400;2023-06-10T00:14:32;5.82;;;4.43;;
55672;SDS011;41554;45.366;20.400;2023-06-10T00:16:59;9.20;;;5.57;;
55672;SDS011;41554;45.366;20.400;2023-06-10T00:19:25;8.10;;;4.95;;
55672;SDS011;41554;45.366;20.400;2023-06-10T00:21:55;11.15;;;5.65;;
55672;SDS011;41554;45.366;20.400;2023-06-10T00:24:21;11.77;;;5.90;;
55672;SDS011;41554;45.366;20.400;2023-06-10T00:26:47;5.15;;;4.22;;
55672;SDS011;41554;45.366;20.400;2023-06-10T00:29:13;8.50;;;5.60;;
55672;SDS011;41554;45.366;20.400;2023-06-10T00:31:40;6.05;;;4.20;;
55672;SDS011;41554;45.366;20.400;2023-06-10T00:34:06;8.38;;;5.43;;
55672;SDS011;41554;45.366;20.400;2023-06-10T00:36:32;7.10;;;4.43;;
55672;SDS011;41554;45.366;20.400;2023-06-10T00:38:59;6.47;;;4.93;;
55672;SDS011;41554;45.366;20.400;2023-06-10T00:41:25;6.63;;;5.00;;
55672;SDS011;41554;45.366;20.400;2023-06-10T00:43:54;27.88;;;6.28;;
55672;SDS011;41554;45.366;20.400;2023-06-10T00:46:23;8.35;;;5.15;;
55672;SDS011;41554;45.366;20.400;2023-06-10T00:48:51;5.68;;;5.03;;
55672;SDS011;41554;45.366;20.400;2023-06-10T00:51:18;9.30;;;5.53;;
55672;SDS011;41554;45.366;20.400;2023-06-10T00:53:44;7.68;;;5.50;;
55672;SDS011;41554;45.366;20.400;2023-06-10T00:56:10;7.85;;;5.75;;
55672;SDS011;41554;45.366;20.400;2023-06-10T00:58:36;7.72;;;5.25;;
55672;SDS011;41554;45.366;20.400;2023-06-10T01:01:03;8.80;;;5.55;;
55672;SDS011;41554;45.366;20.400;2023-06-10T01:03:29;7.78;;;5.03;;
55672;SDS011;41554;45.366;20.400;2023-06-10T01:11:14;8.85;;;5.20;;
55672;SDS011;41554;45.366;20.400;2023-06-10T01:13:43;11.55;;;5.38;;
55672;SDS011;41554;45.366;20.400;2023-06-10T01:16:09;5.97;;;5.05;;
55672;SDS011;41554;45.366;20.400;2023-06-10T01:18:35;8.25;;;4.65;;
55672;SDS011;41554;45.366;20.400;2023-06-10T01:21:03;7.95;;;5.55;;
55672;SDS011;41554;45.366;20.400;2023-06-10T01:23:30;7.32;;;5.15;;
55672;SDS011;41554;45.366;20.400;2023-06-10T01:26:14;5.10;;;3.95;;
55672;SDS011;41554;45.366;20.400;2023-06-10T01:28:49;6.03;;;4.38;;
55672;SDS011;41554;45.366;20.400;2023-06-10T01:33:47;8.88;;;5.38;;
55672;SDS011;41554;45.366;20.400;2023-06-10T01:36:15;10.07;;;5.88;;
55672;SDS011;41554;45.366;20.400;2023-06-10T01:38:42;8.82;;;5.10;;
55672;SDS011;41554;45.366;20.400;2023-06-10T01:41:09;11.82;;;5.80;;
55672;SDS011;41554;45.366;20.400;2023-06-10T01:43:37;6.85;;;5.70;;
55672;SDS011;41554;45.366;20.400;2023-06-10T01:46:03;14.43;;;6.30;;
55672;SDS011;41554;45.366;20.400;2023-06-10T01:48:29;14.55;;;7.80;;
55672;SDS011;41554;45.366;20.400;2023-06-10T01:50:55;23.58;;;12.40;;
55672;SDS011;41554;45.366;20.400;2023-06-10T01:53:22;12.13;;;10.88;;
55672;SDS011;41554;45.366;20.400;2023-06-10T01:55:48;15.10;;;10.50;;
55672;SDS011;41554;45.366;20.400;2023-06-10T01:58:14;18.75;;;11.35;;
55672;SDS011;41554;45.366;20.400;2023-06-10T02:00:40;10.90;;;8.10;;
55672;SDS011;41554;45.366;20.400;2023-06-10T02:03:06;9.07;;;6.47;;
55672;SDS011;41554;45.366;20.400;2023-06-10T02:05:32;11.07;;;7.13;;
55672;SDS011;41554;45.366;20.400;2023-06-10T02:07:58;11.77;;;5.35;;
55672;SDS011;41554;45.366;20.400;2023-06-10T02:10:25;9.93;;;7.28;;
55672;SDS011;41554;45.366;20.400;2023-06-10T02:12:51;7.45;;;6.40;;
55672;SDS011;41554;45.366;20.400;2023-06-10T02:15:18;7.78;;;6.43;;
55672;SDS011;41554;45.366;20.400;2023-06-10T02:17:44;7.13;;;5.97;;
55672;SDS011;41554;45.366;20.400;2023-06-10T02:20:10;10.75;;;6.70;;
55672;SDS011;41554;45.366;20.400;2023-06-10T02:22:37;7.53;;;6.60;;
55672;SDS011;41554;45.366;20.400;2023-06-10T02:25:03;8.82;;;7.20;;
55672;SDS011;41554;45.366;20.400;2023-06-10T02:27:29;9.23;;;6.28;;
55672;SDS011;41554;45.366;20.400;2023-06-10T02:29:56;14.60;;;6.88;;
55672;SDS011;41554;45.366;20.400;2023-06-10T02:32:22;23.88;;;8.25;;
55672;SDS011;41554;45.366;20.400;2023-06-10T02:34:48;19.67;;;7.95;;
55672;SDS011;41554;45.366;20.400;2023-06-10T02:37:15;11.70;;;7.40;;
55672;SDS011;41554;45.366;20.400;2023-06-10T02:39:41;10.35;;;6.53;;
55672;SDS011;41554;45.366;20.400;2023-06-10T02:42:07;10.73;;;7.03;;
55672;SDS011;41554;45.366;20.400;2023-06-10T02:44:33;8.13;;;6.32;;
55672;SDS011;41554;45.366;20.400;2023-06-10T02:46:59;8.77;;;6.47;;
55672;SDS011;41554;45.366;20.400;2023-06-10T02:49:25;8.55;;;6.10;;
55672;SDS011;41554;45.366;20.400;2023-06-10T02:51:54;8.57;;;7.50;;
55672;SDS011;41554;45.366;20.400;2023-06-10T02:54:22;9.18;;;7.32;;
55672;SDS011;41554;45.366;20.400;2023-06-10T02:56:48;13.13;;;9.40;;
55672;SDS011;41554;45.366;20.400;2023-06-10T02:59:14;13.25;;;7.65;;
55672;SDS011;41554;45.366;20.400;2023-06-10T03:01:40;12.50;;;7.15;;
55672;SDS011;41554;45.366;20.400;2023-06-10T03:04:07;15.50;;;7.80;;
55672;SDS011;41554;45.366;20.400;2023-06-10T03:06:33;16.20;;;10.38;;
55672;SDS011;41554;45.366;20.400;2023-06-10T03:09:00;14.75;;;10.88;;
55672;SDS011;41554;45.366;20.400;2023-06-10T03:11:26;14.70;;;11.80;;
55672;SDS011;41554;45.366;20.400;2023-06-10T03:13:53;14.48;;;11.65;;
55672;SDS011;41554;45.366;20.400;2023-06-10T03:16:20;13.07;;;11.68;;
55672;SDS011;41554;45.366;20.400;2023-06-10T03:18:46;18.17;;;14.45;;
55672;SDS011;41554;45.366;20.400;2023-06-10T03:21:12;26.45;;;14.38;;
55672;SDS011;41554;45.366;20.400;2023-06-10T03:23:38;22.13;;;15.73;;
55672;SDS011;41554;45.366;20.400;2023-06-10T03:26:04;22.23;;;15.23;;
55672;SDS011;41554;45.366;20.400;2023-06-10T03:28:30;31.25;;;15.48;;
55672;SDS011;41554;45.366;20.400;2023-06-10T03:30:57;27.20;;;15.25;;
55672;SDS011;41554;45.366;20.400;2023-06-10T03:33:23;21.95;;;16.40;;
55672;SDS011;41554;45.366;20.400;2023-06-10T03:35:49;20.83;;;13.52;;
55672;SDS011;41554;45.366;20.400;2023-06-10T03:38:16;27.05;;;16.90;;
55672;SDS011;41554;45.366;20.400;2023-06-10T03:40:42;18.60;;;14.48;;
55672;SDS011;41554;45.366;20.400;2023-06-10T03:43:08;18.30;;;14.43;;
55672;SDS011;41554;45.366;20.400;2023-06-10T03:45:34;14.07;;;12.45;;
55672;SDS011;41554;45.366;20.400;2023-06-10T03:48:01;16.60;;;11.23;;
55672;SDS011;41554;45.366;20.400;2023-06-10T03:50:28;12.07;;;9.55;;
55672;SDS011;41554;45.366;20.400;2023-06-10T03:52:54;14.95;;;11.02;;
55672;SDS011;41554;45.366;20.400;2023-06-10T03:55:20;15.52;;;10.63;;
55672;SDS011;41554;45.366;20.400;2023-06-10T03:57:48;15.02;;;9.32;;
55672;SDS011;41554;45.366;20.400;2023-06-10T04:00:15;7.90;;;6.88;;
55672;SDS011;41554;45.366;20.400;2023-06-10T04:02:42;8.10;;;6.22;;
55672;SDS011;41554;45.366;20.400;2023-06-10T04:05:13;10.00;;;5.75;;
55672;SDS011;41554;45.366;20.400;2023-06-10T04:07:40;13.68;;;6.80;;
55672;SDS011;41554;45.366;20.400;2023-06-10T04:10:07;11.40;;;8.30;;
55672;SDS011;41554;45.366;20.400;2023-06-10T04:12:34;11.00;;;8.95;;
55672;SDS011;41554;45.366;20.400;2023-06-10T04:15:00;11.48;;;9.52;;
55672;SDS011;41554;45.366;20.400;2023-06-10T04:17:26;12.23;;;9.05;;
55672;SDS011;41554;45.366;20.400;2023-06-10T04:19:52;12.98;;;10.95;;
55672;SDS011;41554;45.366;20.400;2023-06-10T04:22:19;14.57;;;11.40;;
55672;SDS011;41554;45.366;20.400;2023-06-10T04:24:46;18.08;;;13.82;;
55672;SDS011;41554;45.366;20.400;2023-06-10T04:27:12;24.42;;;13.65;;
55672;SDS011;41554;45.366;20.400;2023-06-10T04:29:38;17.00;;;12.98;;
55672;SDS011;41554;45.366;20.400;2023-06-10T04:32:04;16.13;;;13.15;;
55672;SDS011;41554;45.366;20.400;2023-06-10T04:34:32;13.80;;;10.68;;
55672;SDS011;41554;45.366;20.400;2023-06-10T04:36:58;14.15;;;10.63;;
55672;SDS011;41554;45.366;20.400;2023-06-10T04:39:24;14.10;;;11.38;;
55672;SDS011;41554;45.366;20.400;2023-06-10T04:41:50;18.73;;;12.30;;
55672;SDS011;41554;45.366;20.400;2023-06-10T04:44:17;17.95;;;12.65;;
55672;SDS011;41554;45.366;20.400;2023-06-10T04:46:43;17.42;;;11.23;;
55672;SDS011;41554;45.366;20.400;2023-06-10T04:49:10;11.90;;;9.98;;
55672;SDS011;41554;45.366;20.400;2023-06-10T04:51:39;15.25;;;11.20;;
55672;SDS011;41554;45.366;20.400;2023-06-10T04:54:05;15.55;;;11.25;;
55672;SDS011;41554;45.366;20.400;2023-06-10T04:56:31;18.38;;;12.25;;
55672;SDS011;41554;45.366;20.400;2023-06-10T04:58:58;18.80;;;14.95;;
55672;SDS011;41554;45.366;20.400;2023-06-10T05:01:24;16.95;;;13.15;;
55672;SDS011;41554;45.366;20.400;2023-06-10T05:03:50;17.10;;;14.27;;
55672;SDS011;41554;45.366;20.400;2023-06-10T05:06:16;24.55;;;15.68;;
55672;SDS011;41554;45.366;20.400;2023-06-10T05:08:42;23.48;;;17.02;;
55672;SDS011;41554;45.366;20.400;2023-06-10T05:11:08;20.92;;;14.70;;
55672;SDS011;41554;45.366;20.400;2023-06-10T05:13:35;25.15;;;16.85;;
55672;SDS011;41554;45.366;20.400;2023-06-10T05:16:01;16.30;;;13.07;;
55672;SDS011;41554;45.366;20.400;2023-06-10T05:18:27;28.85;;;15.45;;
55672;SDS011;41554;45.366;20.400;2023-06-10T05:20:53;18.60;;;13.98;;
55672;SDS011;41554;45.366;20.400;2023-06-10T05:23:20;19.98;;;16.02;;
55672;SDS011;41554;45.366;20.400;2023-06-10T05:25:46;18.08;;;15.65;;
55672;SDS011;41554;45.366;20.400;2023-06-10T05:28:13;16.70;;;14.73;;
55672;SDS011;41554;45.366;20.400;2023-06-10T05:30:39;18.55;;;11.00;;
55672;SDS011;41554;45.366;20.400;2023-06-10T05:33:05;20.83;;;11.45;;
55672;SDS011;41554;45.366;20.400;2023-06-10T05:35:31;15.02;;;11.38;;
55672;SDS011;41554;45.366;20.400;2023-06-10T05:37:57;10.55;;;9.45;;
55672;SDS011;41554;45.366;20.400;2023-06-10T05:40:23;14.30;;;11.20;;
55672;SDS011;41554;45.366;20.400;2023-06-10T05:42:49;13.07;;;10.23;;
55672;SDS011;41554;45.366;20.400;2023-06-10T05:45:15;13.77;;;12.27;;
55672;SDS011;41554;45.366;20.400;2023-06-10T05:47:41;13.80;;;12.38;;
55672;SDS011;41554;45.366;20.400;2023-06-10T05:50:07;15.48;;;12.15;;
55672;SDS011;41554;45.366;20.400;2023-06-10T05:52:34;22.23;;;13.07;;
55672;SDS011;41554;45.366;20.400;2023-06-10T05:55:01;15.07;;;12.57;;
55672;SDS011;41554;45.366;20.400;2023-06-10T05:57:27;20.58;;;12.63;;
55672;SDS011;41554;45.366;20.400;2023-06-10T05:59:53;19.73;;;12.65;;
55672;SDS011;41554;45.366;20.400;2023-06-10T06:02:20;14.23;;;11.88;;
55672;SDS011;41554;45.366;20.400;2023-06-10T06:04:46;15.95;;;12.13;;
55672;SDS011;41554;45.366;20.400;2023-06-10T06:07:12;14.60;;;12.05;;
55672;SDS011;41554;45.366;20.400;2023-06-10T06:09:38;16.85;;;12.98;;
55672;SDS011;41554;45.366;20.400;2023-06-10T06:12:04;15.18;;;12.60;;
55672;SDS011;41554;45.366;20.400;2023-06-10T06:14:31;19.88;;;12.73;;
55672;SDS011;41554;45.366;20.400;2023-06-10T06:16:57;19.65;;;12.25;;
55672;SDS011;41554;45.366;20.400;2023-06-10T06:19:23;26.23;;;13.23;;
55672;SDS011;41554;45.366;20.400;2023-06-10T06:21:50;20.38;;;12.43;;
55672;SDS011;41554;45.366;20.400;2023-06-10T06:24:16;16.92;;;13.82;;
55672;SDS011;41554;45.366;20.400;2023-06-10T06:26:42;14.20;;;11.38;;
55672;SDS011;41554;45.366;20.400;2023-06-10T06:29:08;24.80;;;14.25;;
55672;SDS011;41554;45.366;20.400;2023-06-10T06:31:34;22.70;;;15.32;;
55672;SDS011;41554;45.366;20.400;2023-06-10T06:34:00;19.38;;;13.45;;
55672;SDS011;41554;45.366;20.400;2023-06-10T06:36:26;24.13;;;13.57;;
55672;SDS011;41554;45.366;20.400;2023-06-10T06:38:52;19.48;;;12.15;;
55672;SDS011;41554;45.366;20.400;2023-06-10T06:41:18;16.02;;;12.38;;
55672;SDS011;41554;45.366;20.400;2023-06-10T06:43:44;15.85;;;11.88;;
55672;SDS011;41554;45.366;20.400;2023-06-10T06:46:10;19.20;;;13.73;;
55672;SDS011;41554;45.366;20.400;2023-06-10T06:48:36;14.63;;;11.25;;
55672;SDS011;41554;45.366;20.400;2023-06-10T06:51:02;14.20;;;10.88;;
55672;SDS011;41554;45.366;20.400;2023-06-10T06:53:28;19.67;;;11.10;;
55672;SDS011;41554;45.366;20.400;2023-06-10T06:55:55;12.63;;;10.13;;
55672;SDS011;41554;45.366;20.400;2023-06-10T06:58:21;13.25;;;10.65;;
55672;SDS011;41554;45.366;20.400;2023-06-10T07:00:47;11.93;;;9.82;;
55672;SDS011;41554;45.366;20.400;2023-06-10T07:03:13;13.82;;;10.70;;
55672;SDS011;41554;45.366;20.400;2023-06-10T07:05:39;14.60;;;10.63;;
55672;SDS011;41554;45.366;20.400;2023-06-10T07:08:05;13.13;;;10.48;;
55672;SDS011;41554;45.366;20.400;2023-06-10T07:10:31;13.10;;;10.35;;
55672;SDS011;41554;45.366;20.400;2023-06-10T07:12:57;12.82;;;9.60;;
55672;SDS011;41554;45.366;20.400;2023-06-10T07:15:23;11.07;;;9.68;;
55672;SDS011;41554;45.366;20.400;2023-06-10T07:17:49;12.75;;;8.98;;
55672;SDS011;41554;45.366;20.400;2023-06-10T07:20:16;11.63;;;7.30;;
55672;SDS011;41554;45.366;20.400;2023-06-10T07:22:43;9.82;;;8.18;;
55672;SDS011;41554;45.366;20.400;2023-06-10T07:25:09;11.70;;;8.10;;
55672;SDS011;41554;45.366;20.400;2023-06-10T07:27:35;8.90;;;7.05;;
55672;SDS011;41554;45.366;20.400;2023-06-10T07:30:02;12.57;;;8.75;;
55672;SDS011;41554;45.366;20.400;2023-06-10T07:32:28;11.57;;;8.00;;
55672;SDS011;41554;45.366;20.400;2023-06-10T07:34:54;10.85;;;7.95;;
55672;SDS011;41554;45.366;20.400;2023-06-10T07:37:21;10.75;;;8.15;;
55672;SDS011;41554;45.366;20.400;2023-06-10T07:39:47;10.15;;;7.95;;
55672;SDS011;41554;45.366;20.400;2023-06-10T07:42:13;9.20;;;8.30;;
55672;SDS011;41554;45.366;20.400;2023-06-10T07:44:39;8.43;;;7.28;;
55672;SDS011;41554;45.366;20.400;2023-06-10T07:47:05;10.60;;;7.93;;
55672;SDS011;41554;45.366;20.400;2023-06-10T07:49:31;8.65;;;7.18;;
55672;SDS011;41554;45.366;20.400;2023-06-10T07:51:57;8.88;;;7.95;;
55672;SDS011;41554;45.366;20.400;2023-06-10T07:54:23;11.98;;;6.85;;
55672;SDS011;41554;45.366;20.400;2023-06-10T07:56:49;7.32;;;6.25;;
55672;SDS011;41554;45.366;20.400;2023-06-10T07:59:17;9.75;;;7.88;;
55672;SDS011;41554;45.366;20.400;2023-06-10T08:01:43;8.88;;;7.15;;
55672;SDS011;41554;45.366;20.400;2023-06-10T08:04:09;14.05;;;7.82;;
55672;SDS011;41554;45.366;20.400;2023-06-10T08:06:36;12.02;;;7.35;;
55672;SDS011;41554;45.366;20.400;2023-06-10T08:09:02;13.80;;;7.47;;
55672;SDS011;41554;45.366;20.400;2023-06-10T08:11:28;11.32;;;7.85;;
55672;SDS011;41554;45.366;20.400;2023-06-10T08:13:54;10.52;;;7.70;;
55672;SDS011;41554;45.366;20.400;2023-06-10T08:16:21;18.33;;;8.13;;
55672;SDS011;41554;45.366;20.400;2023-06-10T08:18:47;7.45;;;6.57;;
55672;SDS011;41554;45.366;20.400;2023-06-10T08:21:15;10.57;;;7.40;;
55672;SDS011;41554;45.366;20.400;2023-06-10T08:23:41;7.10;;;6.25;;
55672;SDS011;41554;45.366;20.400;2023-06-10T08:26:07;8.60;;;5.97;;
55672;SDS011;41554;45.366;20.400;2023-06-10T08:28:33;9.23;;;6.97;;
55672;SDS011;41554;45.366;20.400;2023-06-10T08:30:59;6.95;;;6.20;;
55672;SDS011;41554;45.366;20.400;2023-06-10T08:33:25;9.05;;;8.13;;
55672;SDS011;41554;45.366;20.400;2023-06-10T08:35:51;9.23;;;6.43;;
55672;SDS011;41554;45.366;20.400;2023-06-10T08:38:17;13.23;;;7.22;;
55672;SDS011;41554;45.366;20.400;2023-06-10T08:40:43;7.53;;;6.72;;
55672;SDS011;41554;45.366;20.400;2023-06-10T08:46:02;14.45;;;7.75;;
55672;SDS011;41554;45.366;20.400;2023-06-10T08:48:29;10.52;;;6.65;;
55672;SDS011;41554;45.366;20.400;2023-06-10T08:50:57;15.70;;;7.35;;
55672;SDS011;41554;45.366;20.400;2023-06-10T08:53:23;10.18;;;7.13;;
55672;SDS011;41554;45.366;20.400;2023-06-10T08:55:50;9.45;;;7.60;;
55672;SDS011;41554;45.366;20.400;2023-06-10T08:58:19;17.65;;;8.45;;
55672;SDS011;41554;45.366;20.400;2023-06-10T09:00:45;11.50;;;8.27;;
55672;SDS011;41554;45.366;20.400;2023-06-10T09:03:12;11.90;;;7.80;;
55672;SDS011;41554;45.366;20.400;2023-06-10T09:05:38;13.70;;;11.07;;
55672;SDS011;41554;45.366;20.400;2023-06-10T09:08:07;14.93;;;9.50;;
55672;SDS011;41554;45.366;20.400;2023-06-10T09:10:34;10.35;;;8.20;;
55672;SDS011;41554;45.366;20.400;2023-06-10T09:13:00;9.70;;;8.18;;
55672;SDS011;41554;45.366;20.400;2023-06-10T09:15:26;14.57;;;9.73;;
55672;SDS011;41554;45.366;20.400;2023-06-10T09:17:52;9.25;;;6.97;;
55672;SDS011;41554;45.366;20.400;2023-06-10T09:20:18;10.63;;;8.40;;
55672;SDS011;41554;45.366;20.400;2023-06-10T09:22:45;10.77;;;7.82;;
55672;SDS011;41554;45.366;20.400;2023-06-10T09:25:12;12.68;;;8.38;;
55672;SDS011;41554;45.366;20.400;2023-06-10T09:27:51;12.90;;;7.63;;
55672;SDS011;41554;45.366;20.400;2023-06-10T09:30:34;11.80;;;8.05;;
55672;SDS011;41554;45.366;20.400;2023-06-10T09:33:09;12.65;;;8.38;;
55672;SDS011;41554;45.366;20.400;2023-06-10T09:35:35;16.70;;;8.00;;
55672;SDS011;41554;45.366;20.400;2023-06-10T09:38:01;9.57;;;5.70;;
55672;SDS011;41554;45.366;20.400;2023-06-10T09:40:27;13.68;;;6.25;;
55672;SDS011;41554;45.366;20.400;2023-06-10T09:42:58;9.38;;;6.57;;
55672;SDS011;41554;45.366;20.400;2023-06-10T09:45:27;7.22;;;5.70;;
55672;SDS011;41554;45.366;20.400;2023-06-10T09:47:55;7.68;;;6.03;;
55672;SDS011;41554;45.366;20.400;2023-06-10T09:50:21;6.93;;;6.07;;
55672;SDS011;41554;45.366;20.400;2023-06-10T09:52:47;9.65;;;6.68;;
55672;SDS011;41554;45.366;20.400;2023-06-10T09:55:13;10.15;;;7.10;;
55672;SDS011;41554;45.366;20.400;2023-06-10T09:57:39;9.02;;;6.45;;
55672;SDS011;41554;45.366;20.400;2023-06-10T10:00:09;8.70;;;6.88;;
55672;SDS011;41554;45.366;20.400;2023-06-10T10:02:45;10.57;;;6.28;;
55672;SDS011;41554;45.366;20.400;2023-06-10T10:05:12;7.88;;;6.38;;
55672;SDS011;41554;45.366;20.400;2023-06-10T10:07:39;14.18;;;8.27;;
55672;SDS011;41554;45.366;20.400;2023-06-10T10:10:06;8.02;;;6.43;;
55672;SDS011;41554;45.366;20.400;2023-06-10T10:12:33;7.55;;;6.30;;
55672;SDS011;41554;45.366;20.400;2023-06-10T10:15:00;9.27;;;6.30;;
55672;SDS011;41554;45.366;20.400;2023-06-10T10:17:26;11.25;;;7.95;;
55672;SDS011;41554;45.366;20.400;2023-06-10T10:19:57;13.57;;;9.13;;
55672;SDS011;41554;45.366;20.400;2023-06-10T10:22:26;9.40;;;6.20;;
55672;SDS011;41554;45.366;20.400;2023-06-10T10:24:53;6.32;;;4.82;;
55672;SDS011;41554;45.366;20.400;2023-06-10T10:27:25;6.57;;;4.22;;
55672;SDS011;41554;45.366;20.400;2023-06-10T10:29:52;6.40;;;4.25;;
55672;SDS011;41554;45.366;20.400;2023-06-10T10:32:20;12.55;;;4.93;;
55672;SDS011;41554;45.366;20.400;2023-06-10T10:37:14;31.30;;;5.22;;
55672;SDS011;41554;45.366;20.400;2023-06-10T10:39:40;6.18;;;4.47;;
55672;SDS011;41554;45.366;20.400;2023-06-10T10:42:06;4.57;;;3.38;;
55672;SDS011;41554;45.366;20.400;2023-06-10T10:44:35;4.78;;;3.35;;
55672;SDS011;41554;45.366;20.400;2023-06-10T10:47:02;4.35;;;3.08;;
55672;SDS011;41554;45.366;20.400;2023-06-10T10:49:31;4.30;;;3.00;;
55672;SDS011;41554;45.366;20.400;2023-06-10T10:51:59;6.18;;;3.53;;
55672;SDS011;41554;45.366;20.400;2023-06-10T10:54:44;4.80;;;3.33;;
55672;SDS011;41554;45.366;20.400;2023-06-10T10:59:44;5.40;;;3.80;;
55672;SDS011;41554;45.366;20.400;2023-06-10T11:02:10;5.53;;;3.95;;
55672;SDS011;41554;45.366;20.400;2023-06-10T11:04:48;6.45;;;4.93;;
55672;SDS011;41554;45.366;20.400;2023-06-10T11:07:14;4.30;;;3.13;;
55672;SDS011;41554;45.366;20.400;2023-06-10T11:10:00;5.82;;;3.92;;
55672;SDS011;41554;45.366;20.400;2023-06-10T11:15:22;5.15;;;3.90;;
55672;SDS011;41554;45.366;20.400;2023-06-10T11:18:07;5.45;;;4.15;;
55672;SDS011;41554;45.366;20.400;2023-06-10T11:28:38;7.57;;;4.60;;
55672;SDS011;41554;45.366;20.400;2023-06-10T11:31:04;4.90;;;4.40;;
55672;SDS011;41554;45.366;20.400;2023-06-10T11:33:31;5.50;;;3.92;;
55672;SDS011;41554;45.366;20.400;2023-06-10T11:35:57;6.65;;;4.05;;
55672;SDS011;41554;45.366;20.400;2023-06-10T11:38:23;7.80;;;4.72;;
55672;SDS011;41554;45.366;20.400;2023-06-10T11:40:50;7.63;;;4.50;;
55672;SDS011;41554;45.366;20.400;2023-06-10T11:43:16;5.10;;;3.97;;
55672;SDS011;41554;45.366;20.400;2023-06-10T11:45:43;5.97;;;4.53;;
55672;SDS011;41554;45.366;20.400;2023-06-10T11:48:09;5.68;;;3.90;;
55672;SDS011;41554;45.366;20.400;2023-06-10T11:50:35;5.30;;;4.80;;
55672;SDS011;41554;45.366;20.400;2023-06-10T11:53:02;5.70;;;4.10;;
55672;SDS011;41554;45.366;20.400;2023-06-10T12:00:46;6.32;;;4.80;;
55672;SDS011;41554;45.366;20.400;2023-06-10T12:03:12;7.30;;;5.57;;
55672;SDS011;41554;45.366;20.400;2023-06-10T12:05:38;7.28;;;5.03;;
55672;SDS011;41554;45.366;20.400;2023-06-10T12:08:11;8.88;;;5.60;;
55672;SDS011;41554;45.366;20.400;2023-06-10T12:10:40;8.63;;;5.65;;
55672;SDS011;41554;45.366;20.400;2023-06-10T12:13:07;9.48;;;5.57;;
55672;SDS011;41554;45.366;20.400;2023-06-10T12:15:34;7.18;;;5.50;;
55672;SDS011;41554;45.366;20.400;2023-06-10T12:18:00;5.30;;;4.72;;
55672;SDS011;41554;45.366;20.400;2023-06-10T12:20:27;6.32;;;5.35;;
55672;SDS011;41554;45.366;20.400;2023-06-10T12:22:53;7.32;;;5.55;;
55672;SDS011;41554;45.366;20.400;2023-06-10T12:25:24;9.27;;;4.93;;
55672;SDS011;41554;45.366;20.400;2023-06-10T12:27:54;4.90;;;4.35;;
55672;SDS011;41554;45.366;20.400;2023-06-10T12:30:21;4.50;;;3.83;;
55672;SDS011;41554;45.366;20.400;2023-06-10T12:32:47;4.50;;;4.10;;
55672;SDS011;41554;45.366;20.400;2023-06-10T12:35:17;4.57;;;3.47;;
55672;SDS011;41554;45.366;20.400;2023-06-10T12:37:54;6.93;;;4.15;;
55672;SDS011;41554;45.366;20.400;2023-06-10T12:40:25;12.48;;;4.20;;
55672;SDS011;41554;45.366;20.400;2023-06-10T12:42:52;6.28;;;3.90;;
55672;SDS011;41554;45.366;20.400;2023-06-10T12:48:43;3.72;;;3.10;;
55672;SDS011;41554;45.366;20.400;2023-06-10T12:50:41;4.38;;;3.22;;
55672;SDS011;41554;45.366;20.400;2023-06-10T12:53:08;2.22;;;1.98;;
55672;SDS011;41554;45.366;20.400;2023-06-10T12:55:36;3.17;;;1.83;;
55672;SDS011;41554;45.366;20.400;2023-06-10T12:58:02;4.43;;;2.67;;
55672;SDS011;41554;45.366;20.400;2023-06-10T13:00:28;5.45;;;3.40;;
55672;SDS011;41554;45.366;20.400;2023-06-10T13:02:55;9.52;;;4.32;;
55672;SDS011;41554;45.366;20.400;2023-06-10T13:05:21;5.22;;;3.63;;
55672;SDS011;41554;45.366;20.400;2023-06-10T13:07:48;7.97;;;4.32;;
55672;SDS011;41554;45.366;20.400;2023-06-10T13:10:14;5.65;;;3.92;;
55672;SDS011;41554;45.366;20.400;2023-06-10T13:12:41;4.55;;;3.78;;
55672;SDS011;41554;45.366;20.400;2023-06-10T13:15:07;5.85;;;3.83;;
55672;SDS011;41554;45.366;20.400;2023-06-10T13:17:33;4.93;;;4.40;;
55672;SDS011;41554;45.366;20.400;2023-06-10T13:20:01;5.97;;;3.85;;
55672;SDS011;41554;45.366;20.400;2023-06-10T13:22:28;8.77;;;4.45;;
55672;SDS011;41554;45.366;20.400;2023-06-10T13:24:55;4.63;;;3.92;;
55672;SDS011;41554;45.366;20.400;2023-06-10T13:27:21;7.68;;;3.83;;
55672;SDS011;41554;45.366;20.400;2023-06-10T13:29:47;5.63;;;4.85;;
55672;SDS011;41554;45.366;20.400;2023-06-10T13:32:13;5.60;;;3.67;;
55672;SDS011;41554;45.366;20.400;2023-06-10T13:34:39;3.83;;;3.40;;
55672;SDS011;41554;45.366;20.400;2023-06-10T13:37:05;7.70;;;3.95;;
55672;SDS011;41554;45.366;20.400;2023-06-10T13:39:32;16.80;;;4.35;;
55672;SDS011;41554;45.366;20.400;2023-06-10T13:41:58;6.05;;;4.68;;
55672;SDS011;41554;45.366;20.400;2023-06-10T13:44:24;7.20;;;3.63;;
55672;SDS011;41554;45.366;20.400;2023-06-10T13:46:50;5.88;;;3.88;;
55672;SDS011;41554;45.366;20.400;2023-06-10T13:49:17;4.32;;;3.70;;
55672;SDS011;41554;45.366;20.400;2023-06-10T13:51:43;4.90;;;3.45;;
55672;SDS011;41554;45.366;20.400;2023-06-10T13:54:09;6.05;;;4.32;;
55672;SDS011;41554;45.366;20.400;2023-06-10T13:56:35;5.63;;;3.75;;
55672;SDS011;41554;45.366;20.400;2023-06-10T13:59:03;6.75;;;4.40;;
55672;SDS011;41554;45.366;20.400;2023-06-10T14:01:29;5.53;;;3.50;;
55672;SDS011;41554;45.366;20.400;2023-06-10T14:03:55;5.65;;;4.43;;
55672;SDS011;41554;45.366;20.400;2023-06-10T14:06:21;7.60;;;4.00;;
55672;SDS011;41554;45.366;20.400;2023-06-10T14:08:47;5.00;;;3.80;;
55672;SDS011;41554;45.366;20.400;2023-06-10T14:11:13;4.32;;;3.45;;
55672;SDS011;41554;45.366;20.400;2023-06-10T14:13:40;4.40;;;3.53;;
55672;SDS011;41554;45.366;20.400;2023-06-10T14:16:06;12.60;;;4.95;;
55672;SDS011;41554;45.366;20.400;2023-06-10T14:18:32;4.07;;;3.33;;
55672;SDS011;41554;45.366;20.400;2023-06-10T14:20:58;4.40;;;3.45;;
55672;SDS011;41554;45.366;20.400;2023-06-10T14:23:24;5.47;;;4.40;;
55672;SDS011;41554;45.366;20.400;2023-06-10T14:25:51;4.70;;;3.78;;
55672;SDS011;41554;45.366;20.400;2023-06-10T14:28:17;4.45;;;3.22;;
55672;SDS011;41554;45.366;20.400;2023-06-10T14:30:43;8.35;;;3.97;;
55672;SDS011;41554;45.366;20.400;2023-06-10T14:33:09;6.75;;;4.18;;
55672;SDS011;41554;45.366;20.400;2023-06-10T14:35:35;10.18;;;6.28;;
55672;SDS011;41554;45.366;20.400;2023-06-10T14:38:02;4.05;;;3.17;;
55672;SDS011;41554;45.366;20.400;2023-06-10T14:40:28;5.60;;;3.35;;
55672;SDS011;41554;45.366;20.400;2023-06-10T14:42:54;4.35;;;3.42;;
55672;SDS011;41554;45.366;20.400;2023-06-10T14:45:21;4.22;;;3.20;;
55672;SDS011;41554;45.366;20.400;2023-06-10T14:47:47;11.57;;;3.78;;
55672;SDS011;41554;45.366;20.400;2023-06-10T14:50:13;4.55;;;3.72;;
55672;SDS011;41554;45.366;20.400;2023-06-10T14:52:39;3.58;;;3.15;;
55672;SDS011;41554;45.366;20.400;2023-06-10T14:55:06;10.60;;;4.65;;
55672;SDS011;41554;45.366;20.400;2023-06-10T14:57:32;5.93;;;3.80;;